Time;durP1;ratioP1;P1;durP2;ratioP2;P2;SDS_P1;SDS_P2;PMS_P1;PMS_P2;Temp;Humidity;BMP_temperature;BMP_pressure;BME280_temperature;BME280_humidity;BME280_pressure;Samples;Min_cycle;Max_cycle;Signal;HPM_P1;HPM_P2
2023/03/07 00:02:24;;;;;;;14.83;13.33;;;;;;;7.75;70.62;92030.06;5069034;28;20269;-74
2023/03/07 00:04:50;;;;;;;14.97;13.47;;;;;;;7.22;72.71;92049.22;5068051;28;20326;-74
2023/03/07 00:07:15;;;;;;;15.97;13.80;;;;;;;7.25;73.20;92047.91;5069053;28;20201;-74
2023/03/07 00:09:41;;;;;;;14.27;13.07;;;;;;;7.47;71.74;92045.66;5068647;28;20217;-74
2023/03/07 00:12:10;;;;;;;13.73;12.67;;;;;;;7.79;68.76;92030.28;5068948;28;20301;-74
2023/03/07 00:14:35;;;;;;;13.53;12.43;;;;;;;7.66;70.19;92020.53;5069142;28;20196;-74
2023/03/07 00:17:01;;;;;;;14.00;12.67;;;;;;;7.64;71.01;92030.44;5068898;28;20225;-75
2023/03/07 00:19:26;;;;;;;14.43;13.13;;;;;;;7.88;68.90;92029.41;5069358;28;20177;-74
2023/03/07 00:21:52;;;;;;;15.57;13.37;;;;;;;7.58;69.83;92021.91;5068722;28;20236;-74
2023/03/07 00:24:17;;;;;;;15.00;13.50;;;;;;;7.66;69.95;92023.91;5069352;28;20185;-73
2023/03/07 00:26:42;;;;;;;14.77;13.47;;;;;;;7.62;70.33;92014.34;5069204;28;20217;-74
2023/03/07 00:29:08;;;;;;;18.83;14.17;;;;;;;7.11;72.76;92016.63;5072930;28;20193;-74
2023/03/07 00:31:34;;;;;;;15.23;13.93;;;;;;;7.01;72.52;92001.13;5073068;28;20221;-74
2023/03/07 00:33:59;;;;;;;16.17;14.67;;;;;;;7.18;72.50;91988.53;5072980;28;20185;-74
2023/03/07 00:36:25;;;;;;;17.57;15.07;;;;;;;6.87;73.34;91989.81;5072627;28;20237;-75
2023/03/07 00:38:51;;;;;;;18.13;15.60;;;;;;;6.97;73.02;91976.78;5073363;28;20189;-74
2023/03/07 00:41:20;;;;;;;15.30;13.83;;;;;;;6.99;73.17;91998.00;5072569;28;20217;-74
2023/03/07 00:43:45;;;;;;;15.13;13.83;;;;;;;6.93;72.64;91999.09;5073063;28;20217;-74
2023/03/07 00:46:12;;;;;;;16.47;14.97;;;;;;;7.05;72.84;92006.56;5072375;28;20225;-74
2023/03/07 00:48:38;;;;;;;16.00;14.37;;;;;;;7.07;72.27;91994.84;5072714;28;20211;-75
2023/03/07 00:51:06;;;;;;;14.27;13.07;;;;;;;6.99;71.22;92005.03;5072133;28;20251;-75
2023/03/07 00:53:32;;;;;;;14.20;12.90;;;;;;;7.01;71.30;91993.34;5072125;28;20185;-75
2023/03/07 00:56:10;;;;;;;16.30;13.50;;;;;;;7.11;70.23;92001.06;5071044;28;20221;-74
2023/03/07 00:58:35;;;;;;;13.47;12.27;;;;;;;7.15;70.12;91994.25;5072331;28;20197;-74
2023/03/07 01:01:03;;;;;;;15.00;13.77;;;;;;;7.12;69.97;91979.25;5071987;28;20271;-75
2023/03/07 01:03:29;;;;;;;15.50;13.83;;;;;;;7.26;70.22;91976.78;5072337;28;20178;-74
2023/03/07 01:05:55;;;;;;;15.10;13.77;;;;;;;7.27;71.21;91983.53;5071224;28;20228;-74
2023/03/07 01:08:21;;;;;;;13.97;12.77;;;;;;;7.20;71.03;91989.03;5071829;28;20269;-74
2023/03/07 01:10:50;;;;;;;14.53;13.23;;;;;;;7.26;71.14;91974.97;5070233;28;20233;-74
2023/03/07 01:13:17;;;;;;;14.77;13.10;;;;;;;7.31;70.65;91995.69;5071625;28;20192;-74
2023/03/07 01:15:43;;;;;;;15.30;13.80;;;;;;;7.21;71.49;91979.41;5070511;28;20221;-74
2023/03/07 01:18:09;;;;;;;16.30;14.90;;;;;;;7.20;71.64;91994.22;5072039;28;20919;-74
2023/03/07 01:20:37;;;;;;;16.90;14.13;;;;;;;7.10;72.29;91983.13;5072030;28;20236;-74
2023/03/07 01:23:03;;;;;;;16.47;13.23;;;;;;;7.22;71.02;91986.91;5105091;28;20280;-74
2023/03/07 01:25:28;;;;;;;14.23;12.90;;;;;;;7.15;72.22;91988.28;5070914;28;20245;-74
2023/03/07 01:27:54;;;;;;;14.50;13.07;;;;;;;7.01;72.67;91985.56;5071420;28;20213;-73
2023/03/07 01:30:21;;;;;;;14.90;13.47;;;;;;;7.13;72.75;91991.16;5071097;28;20217;-74
2023/03/07 01:32:47;;;;;;;14.83;13.43;;;;;;;7.10;72.93;91983.91;5071714;28;20186;-74
2023/03/07 01:35:13;;;;;;;16.57;15.13;;;;;;;7.23;72.34;91964.34;5070900;28;20218;-74
2023/03/07 01:37:39;;;;;;;16.90;15.17;;;;;;;6.94;73.60;91973.94;5072199;28;20181;-74
2023/03/07 01:40:05;;;;;;;17.33;14.07;;;;;;;6.98;73.53;91960.16;5071572;28;20257;-74
2023/03/07 01:42:31;;;;;;;15.07;13.67;;;;;;;6.72;74.72;91971.78;5072500;28;20209;-74
2023/03/07 01:45:02;;;;;;;15.93;14.07;;;;;;;6.84;74.19;91969.59;5070603;28;20226;-74
2023/03/07 01:47:27;;;;;;;16.30;14.20;;;;;;;6.81;74.34;91964.16;5071649;28;20679;-74
2023/03/07 01:49:53;;;;;;;16.77;13.67;;;;;;;6.89;74.68;91964.38;5071046;28;20213;-75
2023/03/07 01:52:51;;;;;;;19.13;14.57;;;;;;;7.03;73.59;91961.94;5070873;28;20186;-73
2023/03/07 01:55:36;;;;;;;14.50;13.17;;;;;;;6.63;75.28;91952.63;5066425;28;20248;-74
2023/03/07 01:58:07;;;;;;;14.97;13.57;;;;;;;6.78;75.23;91957.72;5071690;28;20211;-74
2023/03/07 02:00:35;;;;;;;14.53;13.13;;;;;;;7.00;74.06;91947.69;5070200;28;20222;-74
2023/03/07 02:03:03;;;;;;;14.70;13.30;;;;;;;6.94;73.49;91960.97;5071109;28;20201;-74
2023/03/07 02:05:34;;;;;;;13.93;12.43;;;;;;;6.92;73.11;91961.25;5070554;28;20221;-75
2023/03/07 02:08:01;;;;;;;13.67;12.43;;;;;;;6.97;72.15;91945.63;5070765;28;20220;-74
2023/03/07 02:10:28;;;;;;;14.67;13.33;;;;;;;7.06;71.90;91967.34;5070642;28;20277;-74
2023/03/07 02:12:54;;;;;;;13.70;12.50;;;;;;;6.79;73.85;91966.25;5071421;28;20204;-74
2023/03/07 02:15:20;;;;;;;14.37;13.07;;;;;;;7.09;72.02;91971.22;5070748;28;20225;-74
2023/03/07 02:17:46;;;;;;;14.33;13.03;;;;;;;6.97;72.15;91974.19;5071141;28;20190;-74
2023/03/07 02:20:22;;;;;;;18.77;13.37;;;;;;;6.94;72.23;91968.75;5070224;28;20228;-74
2023/03/07 02:22:48;;;;;;;14.90;13.40;;;;;;;6.60;73.46;91944.63;5071189;28;20197;-74
2023/03/07 02:25:25;;;;;;;16.40;14.97;;;;;;;6.73;73.87;91969.94;5070297;28;20233;-74
2023/03/07 02:27:54;;;;;;;14.83;13.43;;;;;;;6.61;74.87;91959.13;5070894;28;20239;-74
2023/03/07 02:30:19;;;;;;;16.30;14.03;;;;;;;6.46;75.69;91960.00;5069273;28;20228;-74
2023/03/07 02:32:45;;;;;;;16.17;12.70;;;;;;;6.48;75.98;91965.69;5070677;28;20185;-74
2023/03/07 02:35:20;;;;;;;14.23;12.93;;;;;;;6.50;75.84;91956.63;5070347;28;20249;-74
2023/03/07 02:37:50;;;;;;;15.87;14.50;;;;;;;6.44;76.22;91956.91;5070868;28;20211;-75
2023/03/07 02:40:19;;;;;;;14.77;13.40;;;;;;;6.48;76.66;91968.28;5069431;28;20225;-74
2023/03/07 02:42:46;;;;;;;14.07;12.70;;;;;;;6.54;76.88;91973.19;5071281;28;20209;-74
2023/03/07 02:45:17;;;;;;;15.53;14.13;;;;;;;6.57;76.26;91964.88;5069555;28;20247;-74
2023/03/07 02:47:44;;;;;;;15.73;14.27;;;;;;;6.53;76.44;91965.66;5070506;28;20220;-75
2023/03/07 02:50:10;;;;;;;14.03;12.73;;;;;;;6.44;76.50;91959.50;5068798;28;20231;-74
2023/03/07 02:52:35;;;;;;;13.80;12.53;;;;;;;6.35;75.70;91935.22;5069247;28;20225;-74
2023/03/07 02:55:01;;;;;;;14.50;12.70;;;;;;;6.41;75.34;91949.69;5069154;28;20181;-75
2023/03/07 02:57:26;;;;;;;13.70;12.57;;;;;;;6.51;75.14;91936.63;5070507;28;20173;-74
2023/03/07 02:59:51;;;;;;;13.83;12.60;;;;;;;6.38;77.03;91965.78;5069981;28;20196;-74
2023/03/07 03:02:17;;;;;;;14.10;12.80;;;;;;;6.42;77.29;91953.81;5069985;28;20185;-75
2023/03/07 03:04:42;;;;;;;14.43;12.93;;;;;;;6.51;77.43;91959.97;5070536;28;20189;-74
2023/03/07 03:07:08;;;;;;;15.30;12.43;;;;;;;6.39;77.88;91964.72;5069820;28;20232;-74
2023/03/07 03:09:33;;;;;;;13.30;12.00;;;;;;;6.22;76.94;91926.22;5070435;28;20198;-75
2023/03/07 03:11:59;;;;;;;12.07;11.17;;;;;;;6.53;77.47;91968.25;5068930;28;20217;-74
2023/03/07 03:14:24;;;;;;;12.33;11.33;;;;;;;6.42;78.14;91967.56;5070286;28;20211;-74
2023/03/07 03:16:53;;;;;;;12.93;11.93;;;;;;;6.52;77.90;91974.50;5069263;28;20317;-74
2023/03/07 03:19:18;;;;;;;14.07;12.97;;;;;;;6.44;78.00;91959.50;5070996;28;20244;-74
2023/03/07 03:21:44;;;;;;;12.70;11.40;;;;;;;6.31;79.03;91953.09;5069728;28;20232;-74
2023/03/07 03:24:10;;;;;;;12.43;11.50;;;;;;;6.30;78.61;91940.41;5068397;28;20196;-74
2023/03/07 03:26:35;;;;;;;12.60;11.50;;;;;;;6.37;78.30;91959.03;5069131;28;20225;-75
2023/03/07 03:29:02;;;;;;;12.83;11.73;;;;;;;6.46;77.56;91947.03;5070091;28;20182;-74
2023/03/07 03:31:29;;;;;;;12.93;12.00;;;;;;;6.28;78.47;91947.69;5069097;28;20256;-74
2023/03/07 03:33:55;;;;;;;12.17;11.27;;;;;;;6.31;78.25;91934.97;5069439;28;20256;-74
2023/03/07 03:36:24;;;;;;;12.60;11.60;;;;;;;6.34;78.17;91949.97;5069348;28;20245;-74
2023/03/07 03:38:51;;;;;;;12.53;11.53;;;;;;;6.51;77.33;91949.59;5069974;28;20169;-75
2023/03/07 03:41:17;;;;;;;12.77;11.77;;;;;;;6.47;77.01;91956.38;5068967;28;20348;-74
2023/03/07 03:43:42;;;;;;;12.80;11.60;;;;;;;6.49;77.03;91957.66;5069611;28;20169;-75
2023/03/07 03:46:08;;;;;;;14.63;12.07;;;;;;;6.41;77.25;91955.63;5068878;28;20290;-74
2023/03/07 03:48:33;;;;;;;12.27;11.20;;;;;;;6.50;76.89;91955.84;5068810;28;20193;-74
2023/03/07 03:51:01;;;;;;;13.37;12.47;;;;;;;6.44;77.98;91959.50;5068649;28;20229;-74
2023/03/07 03:53:27;;;;;;;13.70;12.40;;;;;;;6.45;77.76;91955.88;5069823;28;20211;-74
2023/03/07 03:55:52;;;;;;;13.20;12.20;;;;;;;6.50;77.46;91969.59;5068622;28;20248;-74
2023/03/07 03:58:17;;;;;;;12.93;11.93;;;;;;;6.46;77.12;91968.56;5069389;28;20185;-74
2023/03/07 04:00:43;;;;;;;12.83;11.67;;;;;;;6.50;77.92;91984.34;5067411;28;20221;-74
2023/03/07 04:03:09;;;;;;;13.50;12.50;;;;;;;6.47;77.71;91972.69;5068317;28;20186;-74
2023/03/07 04:05:34;;;;;;;12.37;11.50;;;;;;;6.56;77.80;91985.88;5068739;28;20233;-74
2023/03/07 04:08:00;;;;;;;11.77;10.97;;;;;;;6.49;78.94;91972.41;5069246;28;20217;-74
2023/03/07 04:10:25;;;;;;;12.63;11.70;;;;;;;6.38;78.92;91950.22;5068734;28;20228;-75
2023/03/07 04:12:50;;;;;;;12.10;11.10;;;;;;;6.43;79.36;91979.47;5068947;28;20220;-74
2023/03/07 04:15:16;;;;;;;14.30;13.13;;;;;;;6.45;79.13;91967.03;5068579;28;20316;-74
2023/03/07 04:17:41;;;;;;;14.90;13.53;;;;;;;6.42;79.14;91967.56;5069006;28;20224;-74
2023/03/07 04:20:13;;;;;;;15.00;13.60;;;;;;;6.57;78.36;91969.25;5067652;28;21028;-74
2023/03/07 04:22:38;;;;;;;15.67;14.20;;;;;;;6.62;77.78;91961.47;5069083;28;20194;-74
2023/03/07 04:25:04;;;;;;;16.77;14.47;;;;;;;6.48;78.44;91955.31;5068951;28;20216;-74
2023/03/07 04:27:29;;;;;;;16.77;14.67;;;;;;;6.28;78.43;91938.09;5068750;28;20252;-74
2023/03/07 04:29:55;;;;;;;15.93;14.40;;;;;;;6.75;76.67;91954.88;5067716;28;20178;-74
2023/03/07 04:32:20;;;;;;;15.27;13.93;;;;;;;6.72;76.03;91958.81;5068961;28;20195;-74
2023/03/07 04:34:45;;;;;;;16.33;14.77;;;;;;;6.76;76.58;91965.00;5068923;28;20185;-74
2023/03/07 04:37:11;;;;;;;15.10;13.67;;;;;;;6.53;77.42;91957.91;5068166;28;20248;-74
2023/03/07 04:39:36;;;;;;;14.37;13.03;;;;;;;6.58;76.60;91958.63;5068643;28;20201;-75
2023/03/07 04:42:01;;;;;;;15.40;14.03;;;;;;;6.50;78.13;91985.16;5067041;28;20220;-75
2023/03/07 04:44:27;;;;;;;17.43;14.50;;;;;;;6.40;77.94;91958.47;5068873;28;20263;-75
2023/03/07 04:46:52;;;;;;;16.07;14.63;;;;;;;6.36;78.89;91986.00;5067927;28;20292;-75
2023/03/07 04:49:17;;;;;;;15.50;14.03;;;;;;;6.42;78.42;91977.94;5068842;28;20182;-75
2023/03/07 04:51:43;;;;;;;14.43;13.13;;;;;;;6.44;79.22;91988.78;5066548;28;20209;-75
2023/03/07 04:54:08;;;;;;;14.70;13.30;;;;;;;6.48;79.19;91991.63;5068483;28;20197;-75
2023/03/07 04:56:34;;;;;;;15.83;14.17;;;;;;;6.30;79.73;91966.34;5067693;28;20237;-76
2023/03/07 04:58:59;;;;;;;15.37;13.80;;;;;;;6.47;79.20;91984.91;5064359;28;20188;-74
2023/03/07 05:01:24;;;;;;;17.93;14.43;;;;;;;6.40;80.08;91984.41;5066365;28;20281;-75
2023/03/07 05:03:50;;;;;;;18.43;14.10;;;;;;;6.51;80.07;92002.25;5065868;28;20196;-71
2023/03/07 05:06:15;;;;;;;15.27;13.87;;;;;;;6.32;80.51;91997.94;5068713;28;20221;-73
2023/03/07 05:08:41;;;;;;;15.50;14.00;;;;;;;6.43;80.56;92000.22;5067877;28;20208;-73
2023/03/07 05:11:06;;;;;;;16.27;14.63;;;;;;;6.52;79.98;91997.84;5068609;28;20220;-73
2023/03/07 05:13:32;;;;;;;17.93;13.73;;;;;;;6.60;80.10;91999.09;5070903;28;20198;-75
2023/03/07 05:15:58;;;;;;;17.60;14.43;;;;;;;6.61;80.16;91993.63;5071725;28;20270;-74
2023/03/07 05:18:24;;;;;;;21.53;14.77;;;;;;;6.59;80.26;91972.38;5072058;28;20255;-74
2023/03/07 05:20:50;;;;;;;16.40;14.53;;;;;;;6.73;79.98;91988.88;5070630;28;20236;-75
2023/03/07 05:23:17;;;;;;;16.13;14.43;;;;;;;6.84;79.65;92000.72;5072037;28;20177;-72
2023/03/07 05:25:42;;;;;;;18.90;14.77;;;;;;;6.76;80.04;91988.34;5071030;28;20684;-72
2023/03/07 05:28:08;;;;;;;20.27;15.27;;;;;;;6.78;80.81;92012.19;5070189;28;20227;-71
2023/03/07 05:30:33;;;;;;;17.23;15.47;;;;;;;6.80;80.82;92007.53;5071489;28;20236;-71
2023/03/07 05:32:59;;;;;;;19.80;15.63;;;;;;;6.91;79.71;91990.06;5072041;28;20198;-73
2023/03/07 05:35:24;;;;;;;21.57;16.17;;;;;;;7.04;79.44;92000.56;5068466;28;20237;-73
2023/03/07 05:37:51;;;;;;;20.60;17.47;;;;;;;7.14;78.95;92013.50;5071372;28;20251;-72
2023/03/07 05:40:17;;;;;;;18.43;15.57;;;;;;;7.22;81.13;92009.53;5071550;28;20239;-77
2023/03/07 05:42:42;;;;;;;19.37;15.73;;;;;;;7.29;80.12;92008.16;5071068;28;20209;-74
2023/03/07 05:45:08;;;;;;;16.83;15.23;;;;;;;7.26;78.86;92007.94;5069886;28;20263;-75
2023/03/07 05:47:34;;;;;;;17.53;15.57;;;;;;;7.32;78.15;92022.41;5071860;28;20209;-75
2023/03/07 05:49:59;;;;;;;22.50;15.30;;;;;;;7.28;78.51;92022.19;5069122;28;20196;-75
2023/03/07 05:52:25;;;;;;;18.67;14.37;;;;;;;7.22;79.12;92007.69;5070991;28;20181;-75
2023/03/07 05:54:51;;;;;;;18.33;14.50;;;;;;;7.32;79.07;92023.19;5070895;28;20193;-74
2023/03/07 05:57:16;;;;;;;18.83;15.07;;;;;;;7.27;78.62;92014.69;5071189;28;20193;-75
2023/03/07 05:59:42;;;;;;;17.90;14.33;;;;;;;7.49;77.78;92020.97;5070807;28;20205;-75
2023/03/07 06:02:07;;;;;;;20.23;14.60;;;;;;;7.55;77.16;92013.88;5070508;28;20263;-75
2023/03/07 06:04:32;;;;;;;18.80;14.60;;;;;;;7.74;76.44;92015.53;5068955;28;20174;-75
2023/03/07 06:06:58;;;;;;;16.33;14.57;;;;;;;7.86;75.95;92028.16;5069474;28;20221;-76
2023/03/07 06:09:24;;;;;;;18.73;15.00;;;;;;;7.88;76.14;92026.81;5070181;28;20294;-75
2023/03/07 06:11:50;;;;;;;17.00;15.20;;;;;;;8.09;75.70;92029.97;5069895;28;20225;-76
2023/03/07 06:14:16;;;;;;;16.63;14.93;;;;;;;8.27;73.29;92038.88;5069969;28;20200;-75
2023/03/07 06:16:41;;;;;;;18.83;14.50;;;;;;;8.17;73.77;92017.13;5069589;28;20221;-74
2023/03/07 06:19:07;;;;;;;15.00;13.60;;;;;;;8.17;74.24;92035.31;5070226;28;20185;-75
2023/03/07 06:21:32;;;;;;;15.47;13.83;;;;;;;8.34;74.12;92034.13;5071091;28;20228;-74
2023/03/07 06:23:58;;;;;;;15.33;14.03;;;;;;;8.65;71.91;92041.28;5070494;28;20198;-74
2023/03/07 06:26:23;;;;;;;15.90;14.40;;;;;;;8.59;72.57;92026.03;5070241;28;20263;-76
2023/03/07 06:28:49;;;;;;;16.80;15.07;;;;;;;8.78;72.33;92043.19;5070749;28;20197;-75
2023/03/07 06:31:17;;;;;;;19.00;13.27;;;;;;;8.86;70.58;92050.38;5070246;28;20236;-75
2023/03/07 06:33:44;;;;;;;15.27;13.73;;;;;;;8.77;71.15;92044.25;5070500;28;20182;-75
2023/03/07 06:36:12;;;;;;;16.07;14.27;;;;;;;8.62;72.59;92041.06;5070180;28;20244;-75
2023/03/07 06:38:38;;;;;;;15.43;13.90;;;;;;;8.62;72.85;92046.28;5069329;28;20220;-75
2023/03/07 06:41:04;;;;;;;15.57;13.97;;;;;;;8.83;71.54;92040.53;5070164;28;20233;-75
2023/03/07 06:43:29;;;;;;;16.10;14.47;;;;;;;8.24;73.68;92029.03;5070064;28;21186;-75
2023/03/07 06:45:55;;;;;;;19.63;16.07;;;;;;;8.85;72.26;92061.06;5070342;28;20217;-75
2023/03/07 06:48:20;;;;;;;15.97;14.40;;;;;;;9.15;70.66;92060.66;5070019;28;20217;-75
2023/03/07 06:50:46;;;;;;;15.47;14.07;;;;;;;9.16;69.14;92056.97;5068998;28;20312;-75
2023/03/07 06:53:11;;;;;;;17.37;13.63;;;;;;;9.19;68.96;92048.59;5070067;28;20280;-75
2023/03/07 06:55:37;;;;;;;15.20;13.73;;;;;;;9.34;69.37;92056.16;5070272;28;20225;-75
2023/03/07 06:58:02;;;;;;;14.53;13.10;;;;;;;9.42;67.63;92045.88;5070449;28;20193;-75
2023/03/07 07:00:28;;;;;;;15.43;13.63;;;;;;;9.47;66.90;92052.84;5070025;28;20248;-75
2023/03/07 07:02:53;;;;;;;16.00;14.20;;;;;;;9.22;67.28;92042.81;5068967;28;20702;-75
2023/03/07 07:05:19;;;;;;;16.83;15.13;;;;;;;9.30;67.55;92063.00;5068627;28;20217;-75
2023/03/07 07:07:44;;;;;;;16.37;14.83;;;;;;;9.48;68.03;92059.59;5069871;28;20221;-75
2023/03/07 07:10:10;;;;;;;15.73;14.13;;;;;;;9.61;67.05;92070.09;5069449;28;20251;-75
2023/03/07 07:12:36;;;;;;;15.73;14.23;;;;;;;9.70;66.96;92063.16;5070082;28;20224;-75
2023/03/07 07:15:03;;;;;;;16.10;14.53;;;;;;;9.74;68.16;92060.75;5069260;28;20197;-75
2023/03/07 07:17:29;;;;;;;16.33;14.67;;;;;;;9.76;66.59;92056.00;5070135;28;20185;-75
2023/03/07 07:19:54;;;;;;;15.60;14.00;;;;;;;9.78;65.95;92053.91;5068968;28;20185;-75
2023/03/07 07:22:19;;;;;;;21.03;15.80;;;;;;;9.83;65.55;92053.81;5068933;28;20885;-75
2023/03/07 07:24:45;;;;;;;16.13;14.17;;;;;;;9.76;65.69;92053.41;5070551;28;20193;-75
2023/03/07 07:27:10;;;;;;;17.10;14.33;;;;;;;9.87;65.34;92059.25;5069350;28;20217;-75
2023/03/07 07:29:36;;;;;;;15.20;13.80;;;;;;;10.01;65.36;92047.00;5069905;28;20201;-75
2023/03/07 07:32:01;;;;;;;14.13;12.87;;;;;;;10.26;65.07;92043.94;5068266;28;20220;-75
2023/03/07 07:34:26;;;;;;;15.37;13.10;;;;;;;10.26;64.79;92052.53;5069688;28;20189;-75
2023/03/07 07:36:52;;;;;;;15.70;14.23;;;;;;;10.38;65.13;92065.13;5068901;28;20214;-76
2023/03/07 07:39:18;;;;;;;17.00;15.23;;;;;;;10.48;65.23;92073.50;5069380;28;20303;-75
2023/03/07 07:41:44;;;;;;;16.17;14.50;;;;;;;10.59;64.24;92063.66;5068998;28;20233;-75
2023/03/07 07:44:10;;;;;;;19.93;15.03;;;;;;;10.81;63.60;92067.13;5069000;28;20762;-75
2023/03/07 07:46:36;;;;;;;15.53;14.13;;;;;;;10.68;63.89;92073.13;5066781;28;20222;-74
2023/03/07 07:49:01;;;;;;;17.33;15.50;;;;;;;10.62;63.82;92069.06;5069593;28;20205;-75
2023/03/07 07:51:27;;;;;;;14.67;13.03;;;;;;;10.09;65.55;92073.19;5068581;28;20220;-74
2023/03/07 07:53:52;;;;;;;15.17;13.87;;;;;;;10.57;64.13;92070.97;5069642;28;20190;-75
2023/03/07 07:56:18;;;;;;;15.47;13.73;;;;;;;11.16;62.76;92076.81;5067674;28;20240;-75
2023/03/07 07:58:43;;;;;;;16.20;14.50;;;;;;;10.19;63.58;92080.84;5068685;28;20189;-75
2023/03/07 08:01:26;;;;;;;14.93;13.60;;;;;;;10.53;63.10;92070.03;5068434;28;20290;-75
2023/03/07 08:03:52;;;;;;;14.87;13.67;;;;;;;10.86;62.42;92085.25;5069441;28;20253;-75
2023/03/07 08:06:23;;;;;;;13.63;12.40;;;;;;;10.78;61.58;92077.34;5068234;28;20205;-75
2023/03/07 08:08:49;;;;;;;15.13;13.60;;;;;;;11.09;61.55;92079.06;5069027;28;20345;-75
2023/03/07 08:11:16;;;;;;;17.20;14.00;;;;;;;10.76;60.98;92064.59;5068438;28;20225;-75
2023/03/07 08:13:42;;;;;;;14.27;12.97;;;;;;;10.64;61.64;92069.56;5068529;28;20181;-75
2023/03/07 08:16:16;;;;;;;13.00;11.83;;;;;;;10.65;61.96;92068.47;5065978;28;20225;-75
2023/03/07 08:18:46;;;;;;;15.20;13.90;;;;;;;10.87;60.96;92065.94;5069133;28;20238;-75
2023/03/07 08:21:11;;;;;;;14.90;13.60;;;;;;;10.93;60.32;92070.00;5067308;28;20221;-75
2023/03/07 08:23:37;;;;;;;14.87;13.57;;;;;;;11.11;60.78;92068.31;5069408;28;20187;-76
2023/03/07 08:26:04;;;;;;;16.03;12.80;;;;;;;11.52;60.30;92071.56;5068567;28;20230;-75
2023/03/07 08:28:30;;;;;;;14.20;12.63;;;;;;;11.73;57.80;92077.13;5068071;28;20240;-75
2023/03/07 08:30:55;;;;;;;15.00;13.70;;;;;;;11.77;58.83;92078.84;5068684;28;20234;-75
2023/03/07 08:33:20;;;;;;;14.53;13.23;;;;;;;11.17;59.21;92082.81;5069131;28;20223;-76
2023/03/07 08:35:46;;;;;;;12.97;11.87;;;;;;;11.08;58.91;92067.03;5068841;28;20222;-75
2023/03/07 08:38:11;;;;;;;15.03;13.63;;;;;;;11.38;59.04;92081.28;5068498;28;20218;-75
2023/03/07 08:40:37;;;;;;;13.93;12.50;;;;;;;11.60;57.42;92073.47;5068217;28;20242;-75
2023/03/07 08:43:02;;;;;;;15.30;13.60;;;;;;;11.72;56.32;92080.81;5068716;28;20199;-75
2023/03/07 08:45:28;;;;;;;13.87;12.73;;;;;;;11.60;56.55;92077.91;5068352;28;20233;-75
2023/03/07 08:47:55;;;;;;;15.63;14.13;;;;;;;11.08;59.04;92072.28;5069949;28;20217;-76
2023/03/07 08:50:22;;;;;;;15.13;13.77;;;;;;;10.77;58.65;92070.59;5072328;28;20227;-75
2023/03/07 08:52:47;;;;;;;16.70;14.87;;;;;;;11.07;58.64;92062.91;5071960;28;20174;-76
2023/03/07 08:55:13;;;;;;;15.87;14.30;;;;;;;11.17;57.68;92033.91;5071938;28;20229;-75
2023/03/07 08:57:38;;;;;;;15.20;13.83;;;;;;;11.43;58.59;92078.56;5073259;28;20197;-76
2023/03/07 09:00:08;;;;;;;16.30;14.80;;;;;;;11.47;57.36;92073.53;5071825;28;20184;-75
2023/03/07 09:02:33;;;;;;;14.53;13.23;;;;;;;11.46;56.97;92064.13;5072372;28;20187;-75
2023/03/07 09:04:58;;;;;;;15.43;13.90;;;;;;;11.53;56.92;92067.09;5070982;28;20187;-75
2023/03/07 09:07:24;;;;;;;14.37;13.17;;;;;;;11.66;56.73;92074.16;5072654;28;20197;-75
2023/03/07 09:09:49;;;;;;;15.00;13.70;;;;;;;11.64;57.15;92068.44;5072132;28;20214;-75
2023/03/07 09:12:15;;;;;;;14.67;13.13;;;;;;;11.50;55.84;92050.19;5072219;28;20249;-75
2023/03/07 09:14:40;;;;;;;13.30;12.10;;;;;;;11.48;57.39;92072.44;5072122;28;20174;-75
2023/03/07 09:17:05;;;;;;;14.13;12.93;;;;;;;11.32;57.92;92067.56;5071186;28;20225;-75
2023/03/07 09:19:31;;;;;;;14.20;12.87;;;;;;;11.38;57.90;92078.66;5072444;28;20201;-76
2023/03/07 09:21:56;;;;;;;12.77;11.70;;;;;;;11.57;56.34;92076.66;5071656;28;20217;-75
2023/03/07 09:24:21;;;;;;;14.63;13.20;;;;;;;11.22;56.00;92067.78;5072466;28;20188;-76
2023/03/07 09:26:47;;;;;;;13.73;12.63;;;;;;;11.14;56.41;92065.13;5071503;28;20289;-75
2023/03/07 09:29:12;;;;;;;13.70;12.60;;;;;;;10.60;59.01;92039.84;5071811;28;20205;-76
2023/03/07 09:31:39;;;;;;;14.60;13.30;;;;;;;11.18;56.83;92055.59;5071246;28;20227;-75
2023/03/07 09:34:05;;;;;;;13.43;12.33;;;;;;;11.14;56.69;92060.63;5072004;28;20193;-75
2023/03/07 09:36:30;;;;;;;13.10;12.07;;;;;;;11.23;56.41;92064.13;5070029;28;20305;-76
2023/03/07 09:38:55;;;;;;;13.77;12.67;;;;;;;11.48;55.19;92059.38;5072104;28;20197;-76
2023/03/07 09:41:39;;;;;;;13.10;11.97;;;;;;;11.57;53.92;92057.59;5070990;28;20245;-76
2023/03/07 09:44:18;;;;;;;13.03;11.83;;;;;;;11.72;54.45;92054.66;5071594;28;20224;-74
2023/03/07 09:47:09;;;;;;;13.17;12.13;;;;;;;11.75;54.13;92054.81;5070608;28;20251;-76
2023/03/07 09:49:46;;;;;;;14.63;12.17;;;;;;;12.07;52.00;92046.69;5071434;28;20722;-76
2023/03/07 09:52:15;;;;;;;12.23;11.33;;;;;;;11.90;52.69;92036.16;5071279;28;20225;-76
2023/03/07 09:54:58;;;;;;;12.10;11.10;;;;;;;11.81;51.90;92040.56;5071812;28;20193;-76
2023/03/07 09:57:34;;;;;;;11.13;10.43;;;;;;;11.94;48.87;92026.63;5070975;28;20240;-75
2023/03/07 10:00:30;;;;;;;12.07;11.23;;;;;;;11.79;50.20;92027.00;5069509;28;20242;-75
2023/03/07 10:03:33;;;;;;;13.60;12.33;;;;;;;11.97;51.38;92022.66;5070420;28;20192;-75
2023/03/07 10:06:08;;;;;;;12.33;10.80;;;;;;;11.70;52.26;92020.19;5071024;28;20235;-76
2023/03/07 10:08:33;;;;;;;12.07;11.07;;;;;;;12.04;50.32;92020.38;5071584;28;20204;-75
2023/03/07 10:11:08;;;;;;;11.70;10.57;;;;;;;12.14;50.46;92025.34;5070994;28;20245;-76
2023/03/07 10:13:48;;;;;;;11.37;10.47;;;;;;;11.97;50.44;92020.03;5070514;28;20189;-75
2023/03/07 10:16:25;;;;;;;12.03;10.97;;;;;;;12.25;49.68;92010.91;5070969;28;20223;-75
2023/03/07 10:19:01;;;;;;;12.37;11.10;;;;;;;12.08;49.63;92016.84;5069929;28;20189;-75
2023/03/07 10:21:55;;;;;;;11.03;10.07;;;;;;;12.29;50.12;92012.63;5068521;28;21677;-75
2023/03/07 10:24:42;;;;;;;12.67;11.33;;;;;;;12.41;48.78;92012.03;5071306;28;20202;-75
2023/03/07 10:27:11;;;;;;;11.67;10.63;;;;;;;12.27;49.00;92008.75;5069919;28;20247;-75
2023/03/07 10:29:48;;;;;;;11.07;10.37;;;;;;;12.29;48.07;92011.84;5070682;28;20201;-74
2023/03/07 10:32:42;;;;;;;11.40;10.60;;;;;;;12.58;47.13;92009.47;5070448;28;20228;-75
2023/03/07 10:35:10;;;;;;;10.57;9.77;;;;;;;12.55;46.41;91996.97;5070055;28;20272;-75
2023/03/07 10:37:47;;;;;;;11.03;10.23;;;;;;;12.39;48.83;91996.63;5070562;28;20189;-76
2023/03/07 10:40:41;;;;;;;13.60;12.43;;;;;;;12.29;46.55;91998.75;5070110;28;20244;-75
2023/03/07 10:43:16;;;;;;;10.27;9.67;;;;;;;12.20;46.30;91993.47;5068012;28;20384;-76
2023/03/07 10:45:41;;;;;;;9.23;8.83;;;;;;;12.39;44.71;91988.03;5070141;28;20290;-75
2023/03/07 10:48:14;;;;;;;10.87;9.73;;;;;;;12.73;44.38;91985.47;5069865;28;20296;-75
2023/03/07 10:50:51;;;;;;;9.30;8.60;;;;;;;12.43;44.86;91979.25;5069964;28;20326;-76
2023/03/07 10:53:38;;;;;;;9.77;9.27;;;;;;;12.78;47.00;91970.38;5069867;28;20185;-75
2023/03/07 10:56:13;;;;;;;9.90;9.30;;;;;;;13.16;43.97;91967.19;5068686;28;20224;-75
2023/03/07 10:58:38;;;;;;;8.97;8.57;;;;;;;13.17;42.98;91953.75;5070258;28;20203;-76
2023/03/07 11:01:07;;;;;;;11.37;10.47;;;;;;;13.15;43.22;91945.47;5069496;28;20215;-75
2023/03/07 11:03:57;;;;;;;9.87;9.10;;;;;;;13.32;43.22;91950.69;5068652;28;20209;-75
2023/03/07 11:06:52;;;;;;;10.93;9.00;;;;;;;12.98;42.18;91934.19;5069248;28;20225;-75
2023/03/07 11:09:33;;;;;;;9.23;8.73;;;;;;;13.13;41.93;91937.13;5068851;28;20198;-76
2023/03/07 11:12:05;;;;;;;9.77;9.03;;;;;;;13.38;42.20;91938.94;5068246;28;20229;-76
2023/03/07 11:14:56;;;;;;;9.17;8.57;;;;;;;13.50;41.88;91925.97;5069892;28;20185;-76
2023/03/07 11:17:25;;;;;;;9.83;9.03;;;;;;;13.07;42.46;91917.41;5069239;28;20310;-75
2023/03/07 11:19:53;;;;;;;9.63;9.03;;;;;;;13.37;43.30;91915.66;5069822;28;20276;-75
2023/03/07 11:22:23;;;;;;;10.50;9.73;;;;;;;13.39;43.80;91906.41;5068268;28;20189;-76
2023/03/07 11:24:56;;;;;;;9.53;8.97;;;;;;;13.17;43.79;91906.59;5069740;28;20196;-75
2023/03/07 11:27:24;;;;;;;8.93;8.43;;;;;;;13.44;43.75;91900.22;5069379;28;20224;-75
2023/03/07 11:30:17;;;;;;;10.60;9.93;;;;;;;13.25;43.05;91903.19;5069348;28;20185;-75